Time;durP1;ratioP1;P1;durP2;ratioP2;P2;SDS_P1;SDS_P2;PMS_P1;PMS_P2;Temp;Humidity;BMP_temperature;BMP_pressure;BME280_temperature;BME280_humidity;BME280_pressure;Samples;Min_cycle;Max_cycle;Signal;HPM_P1;HPM_P2
2023/08/12 00:00:23;;;;;;;13.60;11.27;;;23.40;99.90;;;;;;2567779;23;20062;-71
2023/08/12 00:01:25;;;;;;;11.40;10.20;;;23.50;99.90;;;;;;2568235;23;20009;-71
2023/08/12 00:02:25;;;;;;;12.95;11.65;;;23.50;99.90;;;;;;2567092;23;20011;-71
2023/08/12 00:03:26;;;;;;;14.82;12.30;;;23.50;99.90;;;;;;2567906;23;19996;-71
2023/08/12 00:04:26;;;;;;;13.90;12.45;;;23.40;99.90;;;;;;2568140;23;20012;-71
2023/08/12 00:05:27;;;;;;;12.48;10.50;;;23.50;99.90;;;;;;2567605;23;20012;-71
2023/08/12 00:06:28;;;;;;;12.00;10.32;;;23.50;99.90;;;;;;2568007;23;20429;-71
2023/08/12 00:07:29;;;;;;;12.88;11.57;;;23.50;99.90;;;;;;2567838;23;20516;-71
2023/08/12 00:08:30;;;;;;;10.57;9.45;;;23.40;99.90;;;;;;2568987;23;20306;-71
2023/08/12 00:09:30;;;;;;;12.77;10.82;;;23.40;99.90;;;;;;2569225;23;20430;-71
2023/08/12 00:10:31;;;;;;;11.48;10.25;;;23.40;99.90;;;;;;2568623;23;20079;-71
2023/08/12 00:11:31;;;;;;;13.55;10.05;;;23.40;99.90;;;;;;2568705;23;20340;-71
2023/08/12 00:12:32;;;;;;;12.38;11.07;;;23.40;99.90;;;;;;2568359;23;20004;-71
2023/08/12 00:13:33;;;;;;;14.73;11.45;;;23.40;99.90;;;;;;2567952;23;20004;-71
2023/08/12 00:14:34;;;;;;;11.70;10.57;;;23.40;99.90;;;;;;2568013;23;20480;-71
2023/08/12 00:15:34;;;;;;;13.88;12.02;;;23.40;99.90;;;;;;2567337;23;20039;-71
2023/08/12 00:16:35;;;;;;;12.23;10.25;;;23.40;99.90;;;;;;2567660;23;20032;-71
2023/08/12 00:17:37;;;;;;;13.68;12.10;;;23.50;99.90;;;;;;2568429;23;20378;-71
2023/08/12 00:18:37;;;;;;;16.27;11.02;;;23.50;99.90;;;;;;2567223;23;20013;-71
2023/08/12 00:19:38;;;;;;;14.20;10.88;;;23.40;99.90;;;;;;2567695;23;20008;-71
2023/08/12 00:20:39;;;;;;;12.23;10.88;;;23.40;99.90;;;;;;2568348;23;20062;-71
2023/08/12 00:21:39;;;;;;;10.85;9.82;;;23.40;99.90;;;;;;2567672;23;20135;-71
2023/08/12 00:22:40;;;;;;;16.00;12.35;;;23.40;99.90;;;;;;2568549;23;20008;-71
2023/08/12 00:23:41;;;;;;;12.43;10.65;;;23.40;99.90;;;;;;2566119;23;20005;-71
2023/08/12 00:24:42;;;;;;;12.40;11.15;;;23.40;99.90;;;;;;2568231;23;20024;-71
2023/08/12 00:25:42;;;;;;;11.88;10.30;;;23.40;99.90;;;;;;2566988;23;20025;-71
2023/08/12 00:26:43;;;;;;;8.60;7.90;;;23.40;99.90;;;;;;2568497;23;20004;-71
2023/08/12 00:27:43;;;;;;;10.95;9.40;;;23.40;99.90;;;;;;2567117;23;20484;-71
2023/08/12 00:28:44;;;;;;;11.55;10.45;;;23.40;99.90;;;;;;2568785;23;20046;-71
2023/08/12 00:29:44;;;;;;;12.85;10.75;;;23.40;99.90;;;;;;2567349;23;20008;-71
2023/08/12 00:30:48;;;;;;;11.38;10.18;;;23.40;99.90;;;;;;2568100;23;20032;-71
2023/08/12 00:31:49;;;;;;;11.60;10.43;;;23.40;99.90;;;;;;2568007;23;20071;-71
2023/08/12 00:32:50;;;;;;;14.55;10.63;;;23.40;99.90;;;;;;2568791;23;20036;-71
2023/08/12 00:33:50;;;;;;;11.30;8.80;;;23.40;99.90;;;;;;2568007;23;20009;-71
2023/08/12 00:34:51;;;;;;;10.15;9.05;;;23.40;99.90;;;;;;2568255;23;20103;-71
2023/08/12 00:35:51;;;;;;;9.10;8.30;;;23.30;99.90;;;;;;2567431;23;20051;-71
2023/08/12 00:36:52;;;;;;;11.90;10.70;;;23.30;99.90;;;;;;2567884;23;20000;-71
2023/08/12 00:37:53;;;;;;;11.15;9.95;;;23.30;99.90;;;;;;2568200;23;20306;-71
2023/08/12 00:38:53;;;;;;;11.25;9.80;;;23.30;99.90;;;;;;2568859;23;20011;-71
2023/08/12 00:39:54;;;;;;;10.57;9.60;;;23.30;99.90;;;;;;2568090;23;20084;-71
2023/08/12 00:40:54;;;;;;;12.32;10.35;;;23.30;99.90;;;;;;2569001;23;20432;-71
2023/08/12 00:41:55;;;;;;;9.38;7.85;;;23.30;99.90;;;;;;2568311;23;20015;-71
2023/08/12 00:42:55;;;;;;;8.45;7.38;;;23.30;99.90;;;;;;2568880;23;20012;-71
2023/08/12 00:43:56;;;;;;;10.25;8.77;;;23.30;99.90;;;;;;2568326;23;20363;-71
2023/08/12 00:44:58;;;;;;;8.00;7.22;;;23.30;99.90;;;;;;2568157;23;20001;-71
2023/08/12 00:45:58;;;;;;;9.75;8.77;;;23.30;99.90;;;;;;2568511;23;19996;-71
2023/08/12 00:46:59;;;;;;;12.00;10.25;;;23.30;99.90;;;;;;2568948;23;20421;-71
2023/08/12 00:48:00;;;;;;;11.70;9.80;;;23.30;99.90;;;;;;2568584;23;20001;-71
2023/08/12 00:49:00;;;;;;;14.40;10.68;;;23.30;99.90;;;;;;2567751;23;20425;-71
2023/08/12 00:50:01;;;;;;;12.05;10.95;;;23.30;99.90;;;;;;2567582;23;20059;-71
2023/08/12 00:51:03;;;;;;;13.70;11.98;;;23.30;99.90;;;;;;2568502;23;20076;-71
2023/08/12 00:52:04;;;;;;;13.38;10.77;;;23.30;99.90;;;;;;2567379;23;20054;-71
2023/08/12 00:53:07;;;;;;;13.50;8.82;;;23.20;99.90;;;;;;2567460;23;20024;-71
2023/08/12 00:54:12;;;;;;;15.00;11.95;;;23.20;99.90;;;;;;2568027;23;20020;-71
2023/08/12 00:55:13;;;;;;;10.10;9.07;;;23.20;99.90;;;;;;2568380;23;20428;-71
2023/08/12 00:56:13;;;;;;;11.88;10.77;;;23.20;99.90;;;;;;2568568;23;20336;-71
2023/08/12 00:57:14;;;;;;;8.60;7.68;;;23.20;99.90;;;;;;2567846;23;20092;-71
2023/08/12 00:58:15;;;;;;;12.63;11.23;;;23.20;99.90;;;;;;2568040;23;20011;-71
2023/08/12 00:59:17;;;;;;;12.30;10.95;;;23.20;99.90;;;;;;2566687;23;20333;-71
2023/08/12 01:00:20;;;;;;;10.93;9.90;;;23.20;99.90;;;;;;2569034;23;20321;-71
2023/08/12 01:01:21;;;;;;;9.85;8.85;;;23.20;99.90;;;;;;2568043;23;20111;-71
2023/08/12 01:02:22;;;;;;;13.02;11.77;;;23.20;99.90;;;;;;2568763;23;20012;-71
2023/08/12 01:03:23;;;;;;;14.20;12.70;;;23.20;99.90;;;;;;2568786;23;20012;-71
2023/08/12 01:04:24;;;;;;;13.32;12.02;;;23.20;99.90;;;;;;2567429;23;20092;-71
2023/08/12 01:05:24;;;;;;;10.27;9.30;;;23.20;99.90;;;;;;2567584;23;20001;-71
2023/08/12 01:06:25;;;;;;;14.52;12.40;;;23.20;99.90;;;;;;2567196;23;19996;-71
2023/08/12 01:07:26;;;;;;;12.35;11.15;;;23.20;99.90;;;;;;2567082;23;20083;-71
2023/08/12 01:08:30;;;;;;;15.23;13.70;;;23.20;99.90;;;;;;2568450;23;20000;-71
2023/08/12 01:09:31;;;;;;;15.07;13.57;;;23.20;99.90;;;;;;2567864;23;20391;-71
2023/08/12 01:10:36;;;;;;;15.85;13.65;;;23.20;99.90;;;;;;2567809;23;20004;-71
2023/08/12 01:11:51;;;;;;;12.13;10.93;;;23.20;99.90;;;;;;2568570;23;20036;-71
2023/08/12 01:13:06;;;;;;;14.75;13.15;;;23.20;99.90;;;;;;2565607;23;20377;-71
2023/08/12 01:14:21;;;;;;;11.85;10.63;;;23.20;99.90;;;;;;2568087;23;20000;-71
2023/08/12 01:15:23;;;;;;;11.98;10.80;;;23.10;99.90;;;;;;2567445;23;20011;-71
2023/08/12 01:16:28;;;;;;;9.95;9.05;;;23.10;99.90;;;;;;2569121;23;20010;-71
2023/08/12 01:17:31;;;;;;;14.27;12.82;;;23.10;99.90;;;;;;2568450;23;20432;-71
2023/08/12 01:18:32;;;;;;;13.27;11.88;;;23.10;99.90;;;;;;2568561;23;20444;-71
2023/08/12 01:19:37;;;;;;;13.77;12.52;;;23.10;99.90;;;;;;2565558;23;20655;-71
2023/08/12 01:20:39;;;;;;;14.20;12.70;;;23.10;99.90;;;;;;2568823;23;20008;-71
2023/08/12 01:21:43;;;;;;;14.93;13.15;;;23.10;99.90;;;;;;2568669;23;20084;-71
2023/08/12 01:22:46;;;;;;;14.90;13.40;;;23.10;99.90;;;;;;2568599;23;20373;-71
2023/08/12 01:23:47;;;;;;;15.85;14.25;;;23.10;99.90;;;;;;2568744;23;20421;-71
2023/08/12 01:24:47;;;;;;;13.13;11.93;;;23.10;99.90;;;;;;2567161;23;20808;-71
2023/08/12 01:25:48;;;;;;;15.00;13.50;;;23.10;99.90;;;;;;2567197;23;20376;-71
2023/08/12 01:26:49;;;;;;;15.13;13.68;;;23.10;99.90;;;;;;2568194;23;20051;-71
2023/08/12 01:27:49;;;;;;;17.60;14.60;;;23.10;99.90;;;;;;2568311;23;20369;-71
2023/08/12 01:28:50;;;;;;;17.40;15.63;;;23.10;99.90;;;;;;2567601;23;20087;-71
2023/08/12 01:29:52;;;;;;;15.77;14.27;;;23.10;99.90;;;;;;2567125;23;20719;-71
2023/08/12 01:31:01;;;;;;;17.33;15.55;;;23.10;99.90;;;;;;2567592;23;20066;-71
2023/08/12 01:32:21;;;;;;;15.05;13.55;;;23.10;99.90;;;;;;2568396;23;20104;-71
2023/08/12 01:33:39;;;;;;;15.07;13.57;;;23.10;99.90;;;;;;2567151;23;20008;-71
2023/08/12 01:34:57;;;;;;;16.52;14.30;;;23.10;99.90;;;;;;2565807;23;20424;-71
2023/08/12 01:36:09;;;;;;;14.77;13.27;;;23.00;99.90;;;;;;2566882;23;20036;-71
2023/08/12 01:37:14;;;;;;;11.07;9.98;;;23.00;99.90;;;;;;2568055;23;20008;-71
2023/08/12 01:38:16;;;;;;;15.82;14.15;;;23.00;99.90;;;;;;2567963;23;20028;-71
2023/08/12 01:39:19;;;;;;;14.10;12.73;;;23.00;99.90;;;;;;2567093;23;20013;-71
2023/08/12 01:40:21;;;;;;;13.55;12.13;;;23.00;99.90;;;;;;2567343;23;20441;-71
2023/08/12 01:41:23;;;;;;;14.68;12.32;;;23.00;99.90;;;;;;2567982;23;20015;-71
2023/08/12 01:42:24;;;;;;;13.13;11.80;;;23.00;99.90;;;;;;2567736;23;20000;-71
2023/08/12 01:43:26;;;;;;;12.05;10.85;;;23.00;99.90;;;;;;2567752;23;20015;-71
2023/08/12 01:44:26;;;;;;;15.32;12.50;;;23.00;99.90;;;;;;2568305;23;20439;-71
2023/08/12 01:45:27;;;;;;;13.77;12.48;;;23.00;99.90;;;;;;2566426;23;20609;-71
2023/08/12 01:46:27;;;;;;;12.57;10.25;;;23.00;99.90;;;;;;2567604;23;20075;-71
2023/08/12 01:47:28;;;;;;;12.98;11.68;;;23.00;99.90;;;;;;2567936;23;20008;-71
2023/08/12 01:48:29;;;;;;;12.57;11.27;;;23.00;99.90;;;;;;2567455;23;20008;-71
2023/08/12 01:49:29;;;;;;;14.13;12.45;;;23.00;99.90;;;;;;2566417;23;20001;-71
2023/08/12 01:50:30;;;;;;;13.38;12.15;;;23.00;99.90;;;;;;2567761;23;20428;-71
2023/08/12 01:51:30;;;;;;;12.85;11.63;;;23.00;99.90;;;;;;2568452;23;20012;-71
2023/08/12 01:52:31;;;;;;;16.45;13.13;;;23.00;99.90;;;;;;2568626;23;20044;-71
2023/08/12 01:53:32;;;;;;;14.32;12.82;;;23.00;99.90;;;;;;2567285;23;20320;-71
2023/08/12 01:54:34;;;;;;;17.00;13.85;;;23.00;99.90;;;;;;2568435;23;20005;-71
2023/08/12 01:55:35;;;;;;;14.85;13.35;;;23.00;99.90;;;;;;2567796;23;20008;-71
2023/08/12 01:56:35;;;;;;;14.25;12.73;;;23.00;99.90;;;;;;2568482;23;20004;-71
2023/08/12 01:57:36;;;;;;;13.05;11.75;;;23.00;99.90;;;;;;2567820;23;20515;-71
2023/08/12 01:58:36;;;;;;;13.27;11.98;;;23.00;99.90;;;;;;2567920;23;20044;-71
2023/08/12 01:59:38;;;;;;;16.45;13.30;;;23.00;99.90;;;;;;2567978;23;20690;-71
2023/08/12 02:00:38;;;;;;;14.15;12.63;;;23.00;99.90;;;;;;2568312;23;20019;-71
2023/08/12 02:01:39;;;;;;;14.73;12.90;;;22.90;99.90;;;;;;2567431;23;20388;-71
2023/08/12 02:02:39;;;;;;;13.65;12.25;;;22.90;99.90;;;;;;2567569;23;20007;-71
2023/08/12 02:03:40;;;;;;;16.33;12.88;;;23.00;99.90;;;;;;2568578;23;20007;-71
2023/08/12 02:04:42;;;;;;;19.55;12.88;;;22.90;99.90;;;;;;2568089;23;20441;-71
2023/08/12 02:05:43;;;;;;;13.27;11.85;;;22.90;99.90;;;;;;2567901;23;20001;-71
2023/08/12 02:06:43;;;;;;;15.63;13.23;;;22.90;99.90;;;;;;2567115;23;20043;-71
2023/08/12 02:07:44;;;;;;;13.98;11.85;;;22.90;99.90;;;;;;2567866;23;20051;-71
2023/08/12 02:08:45;;;;;;;14.30;12.80;;;22.90;99.90;;;;;;2568519;23;20028;-71
2023/08/12 02:09:46;;;;;;;12.05;10.50;;;22.90;99.90;;;;;;2568366;23;20604;-71
2023/08/12 02:10:46;;;;;;;14.27;12.18;;;22.90;99.90;;;;;;2565545;23;20001;-71
2023/08/12 02:11:47;;;;;;;13.10;11.73;;;22.90;99.90;;;;;;2568098;23;20015;-71
2023/08/12 02:12:47;;;;;;;13.18;11.60;;;22.90;99.90;;;;;;2567696;23;20011;-72
2023/08/12 02:13:48;;;;;;;14.25;10.82;;;22.90;99.90;;;;;;2567304;23;20009;-72
2023/08/12 02:14:48;;;;;;;12.23;10.95;;;22.90;99.90;;;;;;2568403;23;20039;-72
2023/08/12 02:15:49;;;;;;;12.95;11.63;;;22.90;99.90;;;;;;2566340;23;20008;-72
2023/08/12 02:16:49;;;;;;;12.18;10.50;;;22.90;99.90;;;;;;2568296;23;20468;-72
2023/08/12 02:17:50;;;;;;;12.43;11.13;;;22.90;99.90;;;;;;2568775;23;20097;-71
2023/08/12 02:18:50;;;;;;;12.50;10.18;;;22.90;99.90;;;;;;2568291;23;20032;-71
2023/08/12 02:19:51;;;;;;;12.32;10.50;;;22.90;99.90;;;;;;2567614;23;20096;-71
2023/08/12 02:20:51;;;;;;;13.93;12.50;;;22.90;99.90;;;;;;2566324;23;20007;-71
2023/08/12 02:21:52;;;;;;;15.00;13.43;;;22.90;99.90;;;;;;2567391;23;20401;-71
2023/08/12 02:22:52;;;;;;;15.23;13.35;;;22.90;99.90;;;;;;2568102;23;20007;-71
2023/08/12 02:23:53;;;;;;;12.45;10.77;;;22.80;99.90;;;;;;2567342;23;20032;-71
2023/08/12 02:24:53;;;;;;;12.27;11.07;;;22.90;99.90;;;;;;2568260;23;19997;-71
2023/08/12 02:25:54;;;;;;;11.77;9.68;;;22.90;99.90;;;;;;2566054;23;20419;-72
2023/08/12 02:26:55;;;;;;;12.98;11.68;;;22.90;99.90;;;;;;2568588;23;20009;-72
2023/08/12 02:27:55;;;;;;;12.43;11.25;;;22.90;99.90;;;;;;2568419;23;20000;-72
2023/08/12 02:28:56;;;;;;;11.27;9.70;;;22.80;99.90;;;;;;2568284;23;20055;-72
2023/08/12 02:29:56;;;;;;;11.27;9.95;;;22.90;99.90;;;;;;2568234;23;20059;-72
2023/08/12 02:30:57;;;;;;;13.80;11.82;;;22.80;99.90;;;;;;2568295;23;19996;-72
2023/08/12 02:31:57;;;;;;;15.27;12.25;;;22.90;99.90;;;;;;2567699;23;20004;-72
2023/08/12 02:32:58;;;;;;;13.45;11.88;;;22.90;99.90;;;;;;2568318;23;20000;-72
2023/08/12 02:33:58;;;;;;;14.20;12.77;;;22.90;99.90;;;;;;2567913;23;20596;-72
2023/08/12 02:34:59;;;;;;;16.83;12.95;;;22.90;99.90;;;;;;2567889;23;20071;-72
2023/08/12 02:35:59;;;;;;;14.43;12.93;;;22.90;99.90;;;;;;2566906;23;20001;-72
2023/08/12 02:37:00;;;;;;;14.02;12.73;;;22.90;99.90;;;;;;2567347;23;20024;-72
2023/08/12 02:38:00;;;;;;;14.38;13.05;;;22.80;99.90;;;;;;2566815;23;20099;-72
2023/08/12 02:39:01;;;;;;;11.80;10.68;;;22.80;99.90;;;;;;2567520;23;20001;-72
2023/08/12 02:40:04;;;;;;;13.10;11.80;;;22.90;99.90;;;;;;2566964;23;20003;-72
2023/08/12 02:41:05;;;;;;;12.85;11.65;;;22.80;99.90;;;;;;2566986;23;20127;-72
2023/08/12 02:42:05;;;;;;;11.15;10.15;;;22.80;99.90;;;;;;2566549;23;20520;-72
2023/08/12 02:43:06;;;;;;;14.10;11.18;;;22.80;99.90;;;;;;2567721;23;19996;-72
2023/08/12 02:44:06;;;;;;;15.50;11.35;;;22.80;99.90;;;;;;2567784;23;19997;-72
2023/08/12 02:45:07;;;;;;;14.77;12.27;;;22.80;99.90;;;;;;2567216;23;20005;-72
2023/08/12 02:46:08;;;;;;;12.70;11.52;;;22.80;99.90;;;;;;2566430;23;20001;-72
2023/08/12 02:47:08;;;;;;;14.50;12.88;;;22.80;99.90;;;;;;2567909;23;20015;-72
2023/08/12 02:48:12;;;;;;;14.32;12.85;;;22.80;99.90;;;;;;2567967;23;20329;-72
2023/08/12 02:49:12;;;;;;;15.23;13.68;;;22.80;99.90;;;;;;2564810;23;20000;-72
2023/08/12 02:50:13;;;;;;;15.85;14.25;;;22.80;99.90;;;;;;2567203;23;20053;-72
2023/08/12 02:51:14;;;;;;;14.35;12.10;;;22.80;99.90;;;;;;2567199;23;20015;-72
2023/08/12 02:52:14;;;;;;;17.00;14.50;;;22.80;99.90;;;;;;2568302;23;20381;-72
2023/08/12 02:53:16;;;;;;;13.90;12.52;;;22.70;99.90;;;;;;2567525;23;20432;-72
2023/08/12 02:54:16;;;;;;;14.25;12.85;;;22.80;99.90;;;;;;2566425;23;20036;-72
2023/08/12 02:55:17;;;;;;;16.70;15.07;;;22.70;99.90;;;;;;2566453;23;20008;-72
2023/08/12 02:56:17;;;;;;;14.80;13.30;;;22.70;99.90;;;;;;2567365;23;20001;-72
2023/08/12 02:57:18;;;;;;;16.45;14.82;;;22.70;99.90;;;;;;2567968;23;20072;-72
2023/08/12 02:58:18;;;;;;;16.65;14.68;;;22.70;99.90;;;;;;2567374;23;20055;-72
2023/08/12 02:59:19;;;;;;;17.50;15.60;;;22.70;99.90;;;;;;2567494;23;20393;-72
2023/08/12 03:00:20;;;;;;;17.17;15.45;;;22.80;99.90;;;;;;2568347;23;20011;-72
2023/08/12 03:01:21;;;;;;;17.50;15.85;;;22.70;99.90;;;;;;2567647;23;20007;-72
2023/08/12 03:02:22;;;;;;;18.25;16.40;;;22.70;99.90;;;;;;2569345;23;20429;-72
2023/08/12 03:03:22;;;;;;;16.90;15.15;;;22.70;99.90;;;;;;2568903;23;20392;-72
2023/08/12 03:04:23;;;;;;;14.63;13.23;;;22.70;99.90;;;;;;2568606;23;20028;-72
2023/08/12 03:05:23;;;;;;;18.85;16.02;;;22.70;99.90;;;;;;2567703;23;20004;-72
2023/08/12 03:06:24;;;;;;;17.83;16.02;;;22.70;99.90;;;;;;2568450;23;20005;-72
2023/08/12 03:07:24;;;;;;;18.77;16.95;;;22.70;99.90;;;;;;2567970;23;20028;-72
2023/08/12 03:08:25;;;;;;;19.85;16.27;;;22.70;99.90;;;;;;2568559;23;20000;-72
2023/08/12 03:09:26;;;;;;;16.95;15.23;;;22.70;99.90;;;;;;2567710;23;20005;-72
2023/08/12 03:10:27;;;;;;;16.65;15.02;;;22.70;99.90;;;;;;2568548;23;20054;-72
2023/08/12 03:11:27;;;;;;;16.90;15.20;;;22.70;99.90;;;;;;2568807;23;20332;-71
2023/08/12 03:12:28;;;;;;;13.10;11.15;;;22.70;99.90;;;;;;2567886;23;20001;-71
2023/08/12 03:13:29;;;;;;;19.67;17.20;;;22.70;99.90;;;;;;2567995;23;20009;-71
2023/08/12 03:14:30;;;;;;;19.77;16.85;;;22.70;99.90;;;;;;2567575;23;20005;-71
2023/08/12 03:15:30;;;;;;;20.02;17.15;;;22.70;99.90;;;;;;2566911;23;20001;-71
2023/08/12 03:16:31;;;;;;;18.60;16.75;;;22.70;99.90;;;;;;2568618;23;20015;-71
2023/08/12 03:17:31;;;;;;;16.42;14.80;;;22.60;99.90;;;;;;2568505;23;20328;-71
2023/08/12 03:18:32;;;;;;;17.20;15.40;;;22.60;99.90;;;;;;2567627;23;20080;-71
2023/08/12 03:19:32;;;;;;;17.10;15.40;;;22.60;99.90;;;;;;2568204;23;20000;-72
2023/08/12 03:20:33;;;;;;;13.70;12.35;;;22.60;99.90;;;;;;2568143;23;20001;-72
2023/08/12 03:21:34;;;;;;;18.00;16.10;;;22.60;99.90;;;;;;2568801;23;20008;-72
2023/08/12 03:22:38;;;;;;;18.58;16.83;;;22.60;99.90;;;;;;2568081;23;20063;-72
2023/08/12 03:23:39;;;;;;;18.00;16.30;;;22.60;99.90;;;;;;2567481;23;20310;-72
2023/08/12 03:24:39;;;;;;;22.77;18.42;;;22.60;99.90;;;;;;2568103;23;20102;-72
2023/08/12 03:25:40;;;;;;;19.30;17.38;;;22.60;99.90;;;;;;2567930;23;20055;-72
2023/08/12 03:26:40;;;;;;;18.20;16.33;;;22.60;99.90;;;;;;2568800;23;20005;-72
2023/08/12 03:27:41;;;;;;;18.15;16.45;;;22.60;99.90;;;;;;2568057;23;20005;-72
2023/08/12 03:28:42;;;;;;;19.23;17.33;;;22.60;99.90;;;;;;2568874;23;20368;-72
2023/08/12 03:29:42;;;;;;;17.88;16.15;;;22.60;99.90;;;;;;2568102;23;20005;-72
2023/08/12 03:30:51;;;;;;;19.75;17.85;;;22.60;99.90;;;;;;2567889;23;20329;-72
2023/08/12 03:31:51;;;;;;;17.67;15.90;;;22.60;99.90;;;;;;2568570;23;20695;-72
2023/08/12 03:32:52;;;;;;;18.20;16.13;;;22.50;99.90;;;;;;2568851;23;20377;-72
2023/08/12 03:33:53;;;;;;;19.17;17.23;;;22.50;99.90;;;;;;2568333;23;20024;-72
2023/08/12 03:34:53;;;;;;;18.98;16.98;;;22.50;99.90;;;;;;2568220;23;20007;-72
2023/08/12 03:35:54;;;;;;;17.08;15.27;;;22.50;99.90;;;;;;2567729;23;20011;-72
2023/08/12 03:36:55;;;;;;;18.58;16.67;;;22.50;99.90;;;;;;2568016;23;20016;-72
2023/08/12 03:37:55;;;;;;;17.45;15.65;;;22.50;99.90;;;;;;2568859;23;20035;-72
2023/08/12 03:38:56;;;;;;;18.02;15.60;;;22.50;99.90;;;;;;2569005;23;20075;-72
2023/08/12 03:39:56;;;;;;;19.23;17.23;;;22.50;99.90;;;;;;2568625;23;20701;-72
2023/08/12 03:40:57;;;;;;;18.45;16.55;;;22.50;99.90;;;;;;2567624;23;20043;-72
2023/08/12 03:41:57;;;;;;;17.70;16.00;;;22.50;99.90;;;;;;2566833;23;20009;-72
2023/08/12 03:42:58;;;;;;;17.88;16.08;;;22.50;99.90;;;;;;2568293;23;20007;-72
2023/08/12 03:43:58;;;;;;;17.42;15.77;;;22.50;99.90;;;;;;2568335;23;19997;-72
2023/08/12 03:44:59;;;;;;;17.63;15.43;;;22.50;99.90;;;;;;2568235;23;20428;-72
2023/08/12 03:45:59;;;;;;;18.88;16.88;;;22.50;99.90;;;;;;2567959;23;20039;-72
2023/08/12 03:47:00;;;;;;;19.27;17.17;;;22.50;99.90;;;;;;2569311;23;20417;-72
2023/08/12 03:48:00;;;;;;;19.88;16.98;;;22.40;99.90;;;;;;2568823;23;20000;-72
2023/08/12 03:49:01;;;;;;;17.67;15.98;;;22.40;99.90;;;;;;2569173;23;20115;-72
2023/08/12 03:50:02;;;;;;;18.50;16.60;;;22.40;99.90;;;;;;2568336;23;19992;-72
2023/08/12 03:51:02;;;;;;;22.77;18.20;;;22.40;99.90;;;;;;2569197;23;20317;-72
2023/08/12 03:52:03;;;;;;;18.95;16.90;;;22.40;99.90;;;;;;2568983;23;20016;-72
2023/08/12 03:53:05;;;;;;;18.50;16.83;;;22.40;99.90;;;;;;2568992;23;20001;-72
2023/08/12 03:54:05;;;;;;;19.55;17.45;;;22.40;99.90;;;;;;2568471;23;20664;-72
2023/08/12 03:55:06;;;;;;;18.33;16.52;;;22.40;99.90;;;;;;2569046;23;20326;-72
2023/08/12 03:56:07;;;;;;;19.15;17.17;;;22.40;99.90;;;;;;2568156;23;20004;-72
2023/08/12 03:57:08;;;;;;;20.58;18.55;;;22.40;99.90;;;;;;2567632;23;20015;-72
2023/08/12 03:58:08;;;;;;;20.67;17.58;;;22.30;99.90;;;;;;2568124;23;20047;-72
2023/08/12 03:59:09;;;;;;;18.30;16.65;;;22.30;99.90;;;;;;2567086;23;20009;-72
2023/08/12 04:00:10;;;;;;;19.48;17.40;;;22.30;99.90;;;;;;2566597;23;20076;-72
2023/08/12 04:01:11;;;;;;;20.38;17.05;;;22.30;99.90;;;;;;2568554;23;20058;-72
2023/08/12 04:02:11;;;;;;;18.08;16.08;;;22.30;99.90;;;;;;2568470;23;20004;-72
2023/08/12 04:03:13;;;;;;;18.27;16.58;;;22.30;99.90;;;;;;2568099;23;20104;-72
2023/08/12 04:04:13;;;;;;;17.13;15.48;;;22.30;99.90;;;;;;2568139;23;20028;-72
2023/08/12 04:05:14;;;;;;;19.48;17.38;;;22.30;99.90;;;;;;2566459;23;20011;-72
2023/08/12 04:06:14;;;;;;;21.08;18.75;;;22.30;99.90;;;;;;2567117;23;20608;-72
2023/08/12 04:07:15;;;;;;;19.10;16.98;;;22.40;99.90;;;;;;2567527;23;19996;-72
2023/08/12 04:08:15;;;;;;;19.77;17.70;;;22.40;99.90;;;;;;2567644;23;20016;-72
2023/08/12 04:09:17;;;;;;;19.25;17.25;;;22.40;99.90;;;;;;2566111;23;20001;-72
2023/08/12 04:10:17;;;;;;;19.30;17.20;;;22.40;99.90;;;;;;2568517;23;20076;-72
2023/08/12 04:11:18;;;;;;;18.83;16.90;;;22.40;99.90;;;;;;2568260;23;20495;-72
2023/08/12 04:12:19;;;;;;;19.30;17.35;;;22.40;99.90;;;;;;2565769;23;20016;-72
2023/08/12 04:13:19;;;;;;;20.20;18.02;;;22.30;99.90;;;;;;2568764;23;19997;-72
2023/08/12 04:14:20;;;;;;;19.02;17.10;;;22.40;99.90;;;;;;2567885;23;20495;-72
2023/08/12 04:15:21;;;;;;;18.45;16.55;;;22.40;99.90;;;;;;2567654;23;20444;-72
2023/08/12 04:16:21;;;;;;;18.60;16.60;;;22.40;99.90;;;;;;2567904;23;20016;-72
2023/08/12 04:17:22;;;;;;;20.70;16.25;;;22.40;99.90;;;;;;2568328;23;20004;-71
2023/08/12 04:18:22;;;;;;;17.67;15.98;;;22.40;99.90;;;;;;2568534;23;20008;-71
2023/08/12 04:19:23;;;;;;;18.88;16.67;;;22.40;99.90;;;;;;2568120;23;20001;-71
2023/08/12 04:20:24;;;;;;;16.98;15.15;;;22.40;99.90;;;;;;2567778;23;20005;-71
2023/08/12 04:21:24;;;;;;;20.15;16.70;;;22.40;99.90;;;;;;2568501;23;20496;-71
2023/08/12 04:22:26;;;;;;;18.38;16.30;;;22.40;99.90;;;;;;2568084;23;20104;-71
2023/08/12 04:23:26;;;;;;;17.73;15.75;;;22.40;99.90;;;;;;2567512;23;20630;-71
2023/08/12 04:24:27;;;;;;;19.38;15.20;;;22.50;99.90;;;;;;2567849;23;20004;-71
2023/08/12 04:25:27;;;;;;;17.75;15.75;;;22.40;99.90;;;;;;2567334;23;20004;-71
2023/08/12 04:26:28;;;;;;;18.40;16.30;;;22.50;99.90;;;;;;2568277;23;20451;-71
2023/08/12 04:27:28;;;;;;;17.55;15.00;;;22.50;99.90;;;;;;2567372;23;20084;-71
2023/08/12 04:28:29;;;;;;;16.15;14.45;;;22.50;99.90;;;;;;2568350;23;20673;-71
2023/08/12 04:29:29;;;;;;;16.55;14.63;;;22.50;99.90;;;;;;2565680;23;20004;-71
2023/08/12 04:30:30;;;;;;;16.42;14.55;;;22.50;99.90;;;;;;2568053;23;20136;-71
2023/08/12 04:31:30;;;;;;;18.02;15.75;;;22.50;99.90;;;;;;2567559;23;20015;-71
2023/08/12 04:32:31;;;;;;;16.23;14.27;;;22.50;99.90;;;;;;2568117;23;20073;-71
2023/08/12 04:33:32;;;;;;;16.45;14.93;;;22.50;99.90;;;;;;2568145;23;20028;-71
2023/08/12 04:34:32;;;;;;;18.35;15.20;;;22.50;99.90;;;;;;2568213;23;20008;-71
2023/08/12 04:35:33;;;;;;;18.10;13.82;;;22.50;99.90;;;;;;2568200;23;20007;-71
2023/08/12 04:36:33;;;;;;;16.48;14.25;;;22.40;99.90;;;;;;2568680;23;20013;-71
2023/08/12 04:37:36;;;;;;;17.25;13.88;;;22.40;99.90;;;;;;2568851;23;20092;-71
2023/08/12 04:38:36;;;;;;;15.88;13.48;;;22.40;99.90;;;;;;2568732;23;20431;-71
2023/08/12 04:39:37;;;;;;;19.38;13.52;;;22.40;99.90;;;;;;2567476;23;20408;-71
2023/08/12 04:40:41;;;;;;;16.00;14.40;;;22.40;99.90;;;;;;2569092;23;20004;-71
2023/08/12 04:41:41;;;;;;;16.02;13.02;;;22.40;99.90;;;;;;2568381;23;20416;-71
2023/08/12 04:42:42;;;;;;;17.02;14.00;;;22.40;99.90;;;;;;2568275;23;20576;-71
2023/08/12 04:43:43;;;;;;;16.92;13.88;;;22.40;99.90;;;;;;2568779;23;20004;-71
2023/08/12 04:44:43;;;;;;;14.90;13.40;;;22.40;99.90;;;;;;2568215;23;20080;-71
2023/08/12 04:45:47;;;;;;;14.52;13.07;;;22.40;99.90;;;;;;2567481;23;19997;-71
2023/08/12 04:46:47;;;;;;;18.10;14.32;;;22.40;99.90;;;;;;2567320;23;20079;-71
2023/08/12 04:47:48;;;;;;;14.82;12.38;;;22.40;99.90;;;;;;2566895;23;20457;-71
2023/08/12 04:48:48;;;;;;;15.32;13.75;;;22.40;99.90;;;;;;2567633;23;20004;-71
2023/08/12 04:49:49;;;;;;;15.80;13.98;;;22.40;99.90;;;;;;2567539;23;20634;-71
2023/08/12 04:50:49;;;;;;;15.80;14.20;;;22.40;99.90;;;;;;2567840;23;20460;-71
2023/08/12 04:51:52;;;;;;;14.05;12.65;;;22.40;99.90;;;;;;2568578;23;20027;-71
2023/08/12 04:52:53;;;;;;;14.65;13.25;;;22.50;99.90;;;;;;2567343;23;20384;-71
2023/08/12 04:53:53;;;;;;;15.75;14.02;;;22.50;99.90;;;;;;2568125;23;20089;-71
2023/08/12 04:54:54;;;;;;;15.25;13.65;;;22.50;99.90;;;;;;2567197;23;20004;-71
2023/08/12 04:55:56;;;;;;;16.92;14.25;;;22.50;99.90;;;;;;2567147;23;20000;-71
2023/08/12 04:56:57;;;;;;;15.85;12.75;;;22.50;99.90;;;;;;2569076;23;20108;-71
2023/08/12 04:57:57;;;;;;;14.27;12.48;;;22.50;99.90;;;;;;2568239;23;20421;-71
2023/08/12 04:58:58;;;;;;;14.60;13.10;;;22.50;99.90;;;;;;2568583;23;20384;-71
2023/08/12 04:59:58;;;;;;;14.75;13.02;;;22.50;99.90;;;;;;2567994;23;20023;-71
2023/08/12 05:01:01;;;;;;;16.13;14.45;;;22.50;99.90;;;;;;2568425;23;20059;-71
2023/08/12 05:02:02;;;;;;;15.75;13.52;;;22.50;99.90;;;;;;2568697;23;20020;-71
2023/08/12 05:03:03;;;;;;;17.20;13.50;;;22.50;99.90;;;;;;2568203;23;20001;-71
2023/08/12 05:04:04;;;;;;;14.65;13.13;;;22.50;99.90;;;;;;2568270;23;20004;-71
2023/08/12 05:05:05;;;;;;;14.45;13.05;;;22.50;99.90;;;;;;2567200;23;20024;-71
2023/08/12 05:06:05;;;;;;;14.68;13.15;;;22.50;99.90;;;;;;2567332;23;20151;-72
2023/08/12 05:07:06;;;;;;;14.27;12.85;;;22.50;99.90;;;;;;2568306;23;20112;-72
2023/08/12 05:08:06;;;;;;;13.80;12.50;;;22.50;99.90;;;;;;2567390;23;20027;-72
2023/08/12 05:09:08;;;;;;;14.30;12.73;;;22.50;99.90;;;;;;2567534;23;19996;-71
2023/08/12 05:10:09;;;;;;;14.27;12.80;;;22.50;99.90;;;;;;2568538;23;20066;-71
2023/08/12 05:11:09;;;;;;;14.32;12.82;;;22.50;99.90;;;;;;2567869;23;20044;-71